createdAt,value
2022-10-18T00:00:02.867Z,15.97
2022-10-18T00:02:31.347Z,15.60
2022-10-18T00:04:58.146Z,15.40
2022-10-18T00:07:24.944Z,16.43
2022-10-18T00:09:51.674Z,14.57
2022-10-18T00:12:18.442Z,15.57
2022-10-18T00:14:47.991Z,16.03
2022-10-18T00:17:14.701Z,17.37
2022-10-18T00:19:41.419Z,17.43
2022-10-18T00:22:08.134Z,16.33
2022-10-18T00:24:35.230Z,16.40
2022-10-18T00:27:01.969Z,16.10
2022-10-18T00:29:28.886Z,16.03
2022-10-18T00:31:55.598Z,15.90
2022-10-18T00:34:22.345Z,16.97
2022-10-18T00:36:49.095Z,16.97
2022-10-18T00:39:18.323Z,15.70
2022-10-18T00:41:45.573Z,15.90
2022-10-18T00:44:12.253Z,15.63
2022-10-18T00:46:42.069Z,15.87
2022-10-18T00:49:14.216Z,15.63
2022-10-18T00:52:23.994Z,15.43
2022-10-18T00:54:52.244Z,14.73
2022-10-18T00:57:19.365Z,14.80
2022-10-18T00:59:46.864Z,14.50
2022-10-18T01:02:18.288Z,15.03
2022-10-18T01:04:46.226Z,15.00
2022-10-18T01:07:27.884Z,15.30
2022-10-18T01:10:09.979Z,14.83
2022-10-18T01:12:54.861Z,15.67
2022-10-18T01:15:30.300Z,15.00
2022-10-18T01:18:15.117Z,14.30
2022-10-18T01:20:51.060Z,14.80
2022-10-18T01:23:35.911Z,13.97
2022-10-18T01:26:36.472Z,12.80
2022-10-18T01:29:25.988Z,13.50
2022-10-18T01:32:07.322Z,13.23
2022-10-18T01:34:36.489Z,13.87
2022-10-18T01:37:07.459Z,13.33
2022-10-18T01:39:37.942Z,12.90
2022-10-18T01:42:08.824Z,12.77
2022-10-18T01:44:37.919Z,12.97
2022-10-18T01:47:07.435Z,12.30
2022-10-18T01:49:34.429Z,12.03
2022-10-18T01:52:01.308Z,12.23
2022-10-18T01:54:35.081Z,11.47
2022-10-18T01:57:07.576Z,11.63
2022-10-18T01:59:59.885Z,12.10
2022-10-18T02:02:45.437Z,11.80
2022-10-18T02:05:29.071Z,10.70
2022-10-18T02:08:22.902Z,11.23
2022-10-18T02:11:00.412Z,10.47
2022-10-18T02:13:32.076Z,10.63
2022-10-18T02:16:04.916Z,10.23
2022-10-18T02:18:38.990Z,10.17
2022-10-18T02:21:09.686Z,10.43
2022-10-18T02:23:37.490Z,11.03
2022-10-18T02:26:04.443Z,11.37
2022-10-18T02:28:31.662Z,9.70
2022-10-18T02:31:09.134Z,10.50
2022-10-18T02:33:38.586Z,10.63
2022-10-18T02:36:18.422Z,10.30
2022-10-18T02:38:46.278Z,10.67
2022-10-18T02:41:21.531Z,9.93
2022-10-18T02:43:48.267Z,10.10
2022-10-18T02:46:15.142Z,8.87
2022-10-18T02:48:41.910Z,10.20
2022-10-18T02:51:08.723Z,9.50
2022-10-18T02:53:35.470Z,9.30
2022-10-18T02:56:03.270Z,8.77
2022-10-18T02:58:30.042Z,8.67
2022-10-18T03:00:56.774Z,8.70
2022-10-18T03:03:23.522Z,9.50
2022-10-18T03:05:51.275Z,9.17
2022-10-18T03:08:18.887Z,9.30
2022-10-18T03:10:46.713Z,9.57
2022-10-18T03:13:13.708Z,9.80
2022-10-18T03:15:40.541Z,10.53
2022-10-18T03:18:07.277Z,9.87
2022-10-18T03:20:34.571Z,11.07
2022-10-18T03:23:01.390Z,11.23
2022-10-18T03:25:28.116Z,11.07
2022-10-18T03:27:54.865Z,11.83
2022-10-18T03:30:21.564Z,12.37
2022-10-18T03:32:48.274Z,12.27
2022-10-18T03:35:15.035Z,12.63
2022-10-18T03:37:42.001Z,13.17
2022-10-18T03:40:09.186Z,13.67
2022-10-18T03:42:35.912Z,14.03
2022-10-18T03:45:03.235Z,13.67
2022-10-18T03:47:30.033Z,13.40
2022-10-18T03:49:57.337Z,13.93
2022-10-18T03:52:24.347Z,14.87
2022-10-18T03:54:51.080Z,13.37
2022-10-18T03:57:17.906Z,15.23
2022-10-18T03:59:44.625Z,14.43
2022-10-18T04:02:11.365Z,14.43
2022-10-18T04:04:38.112Z,14.17
2022-10-18T04:07:04.839Z,14.50
2022-10-18T04:09:31.699Z,14.33
2022-10-18T04:11:58.443Z,14.73
2022-10-18T04:14:25.378Z,14.83
2022-10-18T04:16:52.123Z,15.00
2022-10-18T04:19:20.121Z,14.93
2022-10-18T04:21:46.854Z,13.63
2022-10-18T04:24:13.620Z,14.40
2022-10-18T04:26:40.402Z,14.60
2022-10-18T04:29:07.256Z,14.80
2022-10-18T04:31:34.097Z,14.43
2022-10-18T04:34:02.298Z,14.07
2022-10-18T04:36:29.199Z,14.10
2022-10-18T04:38:55.913Z,14.80
2022-10-18T04:41:22.894Z,14.57
2022-10-18T04:43:49.645Z,14.10
2022-10-18T04:46:16.409Z,14.43
2022-10-18T04:48:43.141Z,14.23
2022-10-18T04:51:09.869Z,15.20
2022-10-18T04:53:36.625Z,14.73
2022-10-18T04:56:03.396Z,13.80
2022-10-18T04:58:30.349Z,14.77
2022-10-18T05:00:57.068Z,15.30
2022-10-18T05:03:23.829Z,14.90
2022-10-18T05:06:01.329Z,14.50
2022-10-18T05:08:30.053Z,13.57
2022-10-18T05:10:56.933Z,15.87
2022-10-18T05:13:23.753Z,15.20
2022-10-18T05:15:50.515Z,15.00
2022-10-18T05:18:17.482Z,15.00
2022-10-18T05:20:44.193Z,13.63
2022-10-18T05:23:11.031Z,15.07
2022-10-18T05:25:43.960Z,14.17
2022-10-18T05:28:27.164Z,15.23
2022-10-18T05:31:02.588Z,14.80
2022-10-18T05:33:29.880Z,15.20
2022-10-18T05:35:56.759Z,14.30
2022-10-18T05:38:23.632Z,15.07
2022-10-18T05:40:50.558Z,15.43
2022-10-18T05:43:20.414Z,15.30
2022-10-18T05:45:49.121Z,15.33
2022-10-18T05:48:15.943Z,16.30
2022-10-18T05:50:43.586Z,16.03
2022-10-18T05:53:18.533Z,16.73
2022-10-18T05:56:01.639Z,17.20
2022-10-18T05:58:28.426Z,15.67
2022-10-18T06:00:57.907Z,15.23
2022-10-18T06:03:24.651Z,15.10
2022-10-18T06:05:51.394Z,15.90
2022-10-18T06:08:18.111Z,17.30
2022-10-18T06:10:45.217Z,16.03
2022-10-18T06:13:11.959Z,17.00
2022-10-18T06:15:38.671Z,15.97
2022-10-18T06:18:05.381Z,16.57
2022-10-18T06:20:32.108Z,16.67
2022-10-18T06:22:58.808Z,17.40
2022-10-18T06:25:25.512Z,15.83
2022-10-18T06:27:52.249Z,15.87
2022-10-18T06:30:19.316Z,15.13
2022-10-18T06:32:46.041Z,15.73
2022-10-18T06:35:12.845Z,15.17
2022-10-18T06:37:39.631Z,15.97
2022-10-18T06:40:07.143Z,15.00
2022-10-18T06:42:34.289Z,15.90
2022-10-18T06:45:01.251Z,15.33
2022-10-18T06:47:27.951Z,13.93
2022-10-18T06:49:54.658Z,15.23
2022-10-18T06:52:25.477Z,14.57
2022-10-18T06:54:52.804Z,13.30
2022-10-18T06:57:20.854Z,15.10
2022-10-18T06:59:47.684Z,14.43
2022-10-18T07:02:16.862Z,14.67
2022-10-18T07:04:43.998Z,13.47
2022-10-18T07:07:10.719Z,14.50
2022-10-18T07:09:37.462Z,14.00
2022-10-18T07:12:04.528Z,14.30
2022-10-18T07:14:31.251Z,13.43
2022-10-18T07:17:00.890Z,14.87
2022-10-18T07:19:27.715Z,13.53
2022-10-18T07:21:54.579Z,13.20
2022-10-18T07:24:21.435Z,13.20
2022-10-18T07:26:48.508Z,13.90
2022-10-18T07:29:15.455Z,13.47
2022-10-18T07:31:42.329Z,12.97
2022-10-18T07:34:14.695Z,13.50
2022-10-18T07:36:42.152Z,12.83
2022-10-18T07:39:09.237Z,14.37
2022-10-18T07:41:36.322Z,12.93
2022-10-18T07:44:04.010Z,12.83
2022-10-18T07:46:30.742Z,12.87
2022-10-18T07:48:59.520Z,12.23
2022-10-18T07:51:28.138Z,12.80
2022-10-18T07:53:54.946Z,11.53
2022-10-18T07:56:22.338Z,11.97
2022-10-18T07:58:53.275Z,11.40
2022-10-18T08:01:21.853Z,10.97
2022-10-18T08:03:49.217Z,11.37
2022-10-18T08:06:18.454Z,12.63
2022-10-18T08:08:46.228Z,12.13
2022-10-18T08:11:24.484Z,11.37
2022-10-18T08:13:52.323Z,11.33
2022-10-18T08:16:22.190Z,10.40
2022-10-18T08:18:49.505Z,10.00
2022-10-18T08:21:17.743Z,10.13
2022-10-18T08:23:45.124Z,10.80
2022-10-18T08:26:15.082Z,10.33
2022-10-18T08:28:46.169Z,9.27
2022-10-18T08:31:21.061Z,10.20
2022-10-18T08:33:47.849Z,9.47
2022-10-18T08:36:16.447Z,9.73
2022-10-18T08:38:44.222Z,9.00
2022-10-18T08:41:40.854Z,10.33
2022-10-18T08:44:17.531Z,9.40
2022-10-18T08:46:50.018Z,9.30
2022-10-18T08:49:36.292Z,9.57
2022-10-18T08:52:04.512Z,9.50
2022-10-18T08:55:08.966Z,9.90
2022-10-18T08:57:36.423Z,9.13
2022-10-18T09:00:16.133Z,10.57
2022-10-18T09:03:20.745Z,9.33
2022-10-18T09:06:01.127Z,8.00
2022-10-18T09:08:46.024Z,8.50
2022-10-18T09:11:29.952Z,6.63
2022-10-18T09:14:24.027Z,5.83
2022-10-18T09:17:15.937Z,5.70
2022-10-18T09:19:55.069Z,5.60
2022-10-18T09:22:53.024Z,6.07
2022-10-18T09:25:21.487Z,5.90
2022-10-18T09:27:51.696Z,6.33
2022-10-18T09:30:39.582Z,5.97
2022-10-18T09:33:24.144Z,6.00
2022-10-18T09:36:01.053Z,5.63
2022-10-18T09:38:56.070Z,6.13
2022-10-18T09:41:47.493Z,6.53
2022-10-18T09:44:18.662Z,6.70
2022-10-18T09:46:50.638Z,6.57
2022-10-18T09:49:23.299Z,7.23
2022-10-18T09:51:53.322Z,8.00
2022-10-18T09:54:33.826Z,7.77
2022-10-18T09:57:32.945Z,7.67
2022-10-18T10:00:01.437Z,8.00
2022-10-18T10:02:28.206Z,8.10
2022-10-18T10:04:56.278Z,7.90
2022-10-18T10:07:32.470Z,8.80
2022-10-18T10:10:07.502Z,8.90
2022-10-18T10:12:37.504Z,8.30
2022-10-18T10:15:28.286Z,8.43
2022-10-18T10:18:02.851Z,8.77
2022-10-18T10:20:55.076Z,9.00
2022-10-18T10:23:30.489Z,9.33
2022-10-18T10:26:03.891Z,9.87
2022-10-18T10:28:35.295Z,10.43
2022-10-18T10:31:24.125Z,9.93
2022-10-18T10:34:12.852Z,9.73
2022-10-18T10:36:53.948Z,11.30
2022-10-18T10:39:23.619Z,9.83
2022-10-18T10:41:55.484Z,10.90
2022-10-18T10:44:31.899Z,10.90
2022-10-18T10:46:59.219Z,11.20
2022-10-18T10:49:40.725Z,11.50
2022-10-18T10:52:27.360Z,10.20
2022-10-18T10:55:05.771Z,11.57
2022-10-18T10:57:38.947Z,12.37
2022-10-18T11:00:06.100Z,12.77
2022-10-18T11:02:36.375Z,11.90
2022-10-18T11:05:24.367Z,12.90
2022-10-18T11:07:55.291Z,12.27
2022-10-18T11:10:26.556Z,11.33
2022-10-18T11:13:25.176Z,10.47
2022-10-18T11:16:03.835Z,11.03
2022-10-18T11:18:34.931Z,11.03
2022-10-18T11:21:13.603Z,11.30
2022-10-18T11:23:43.088Z,11.67
2022-10-18T11:26:12.660Z,11.33
2022-10-18T11:28:42.263Z,11.87
2022-10-18T11:31:18.051Z,10.83
2022-10-18T11:34:15.081Z,11.83
2022-10-18T11:36:56.069Z,11.97
2022-10-18T11:39:40.892Z,11.27
2022-10-18T11:42:31.314Z,10.93
2022-10-18T11:45:20.943Z,9.63
2022-10-18T11:47:49.967Z,11.17
2022-10-18T11:50:34.089Z,12.40
2022-10-18T11:53:55.010Z,12.10
2022-10-18T11:56:38.490Z,10.80
2022-10-18T11:59:18.472Z,12.27
2022-10-18T12:02:14.679Z,11.13
2022-10-18T12:05:23.268Z,11.77
2022-10-18T12:08:01.291Z,11.47
2022-10-18T12:10:44.256Z,12.03
2022-10-18T12:13:23.858Z,12.40
2022-10-18T12:15:51.877Z,12.00
2022-10-18T12:18:21.850Z,12.27
2022-10-18T12:20:52.198Z,11.90
2022-10-18T12:23:59.571Z,11.73
2022-10-18T12:26:28.673Z,10.97
2022-10-18T12:28:55.438Z,11.50
2022-10-18T12:31:35.050Z,10.60
2022-10-18T12:34:27.504Z,10.03
2022-10-18T12:37:18.540Z,10.10
2022-10-18T12:40:15.519Z,9.57
2022-10-18T12:42:46.183Z,9.37
2022-10-18T12:45:28.415Z,9.40
2022-10-18T12:47:59.855Z,9.73
2022-10-18T12:50:26.785Z,10.67
2022-10-18T12:53:02.524Z,9.83
2022-10-18T12:55:33.356Z,10.63
2022-10-18T12:58:01.866Z,11.07
2022-10-18T13:00:31.694Z,10.70
2022-10-18T13:03:13.500Z,10.87
2022-10-18T13:05:54.404Z,11.13
2022-10-18T13:08:28.091Z,10.43
2022-10-18T13:11:10.272Z,12.07
2022-10-18T13:14:07.840Z,11.30
2022-10-18T13:17:15.142Z,10.97
2022-10-18T13:20:25.133Z,11.23
2022-10-18T13:23:01.682Z,11.20
2022-10-18T13:25:51.537Z,11.67
2022-10-18T13:28:30.571Z,11.40
2022-10-18T13:31:20.021Z,12.10
2022-10-18T13:33:47.049Z,12.20
2022-10-18T13:36:22.472Z,12.80
2022-10-18T13:38:57.814Z,12.53
2022-10-18T13:41:32.866Z,13.13
2022-10-18T13:44:25.201Z,12.43
2022-10-18T13:46:51.958Z,12.53
2022-10-18T13:49:30.757Z,13.07
2022-10-18T13:52:26.668Z,13.17
2022-10-18T13:55:24.140Z,12.67
2022-10-18T13:58:15.164Z,13.77
2022-10-18T14:01:03.420Z,13.47
2022-10-18T14:03:58.238Z,13.83
2022-10-18T14:06:43.169Z,13.53
2022-10-18T14:09:40.204Z,13.37
2022-10-18T14:12:16.769Z,13.37
2022-10-18T14:14:48.599Z,14.40
2022-10-18T14:17:49.337Z,14.13
2022-10-18T14:20:55.286Z,13.80
2022-10-18T14:23:40.334Z,12.33
2022-10-18T14:26:14.393Z,13.47
2022-10-18T14:28:59.098Z,13.00
2022-10-18T14:31:27.993Z,11.53
2022-10-18T14:33:58.351Z,10.93
2022-10-18T14:36:29.509Z,11.10
2022-10-18T14:39:00.672Z,10.80
2022-10-18T14:41:36.088Z,10.13
2022-10-18T14:44:14.695Z,10.33
2022-10-18T14:47:06.498Z,10.30
2022-10-18T14:49:33.285Z,10.97
2022-10-18T14:52:00.907Z,11.03
2022-10-18T14:54:37.737Z,11.20
2022-10-18T14:57:06.306Z,10.73
2022-10-18T14:59:40.317Z,11.17
2022-10-18T15:02:29.668Z,10.73
2022-10-18T15:05:20.974Z,11.10
2022-10-18T15:07:50.149Z,10.67
2022-10-18T15:10:25.414Z,11.30
2022-10-18T15:13:10.159Z,11.23
2022-10-18T15:15:38.340Z,12.03
2022-10-18T15:18:06.666Z,11.20
2022-10-18T15:20:39.358Z,12.40
2022-10-18T15:23:26.038Z,12.33
2022-10-18T15:26:00.225Z,12.33
2022-10-18T15:28:40.673Z,12.83
2022-10-18T15:31:23.137Z,13.20
2022-10-18T15:33:50.197Z,13.20
2022-10-18T15:36:35.966Z,12.83
2022-10-18T15:39:06.004Z,13.00
2022-10-18T15:41:57.165Z,12.87
2022-10-18T15:44:46.219Z,12.70
2022-10-18T15:47:13.181Z,13.10
2022-10-18T15:49:46.208Z,13.17
2022-10-18T15:52:21.786Z,14.07
2022-10-18T15:57:20.991Z,13.80
2022-10-18T16:00:00.494Z,14.17
2022-10-18T16:02:27.497Z,14.33
2022-10-18T16:04:54.535Z,14.10
2022-10-18T16:07:21.430Z,14.40
2022-10-18T16:09:48.227Z,15.13
2022-10-18T16:12:14.983Z,13.37
2022-10-18T16:14:41.746Z,13.87
2022-10-18T16:17:16.590Z,14.23
2022-10-18T16:19:44.464Z,14.80
2022-10-18T16:24:45.874Z,14.70
2022-10-18T16:27:12.636Z,15.00
2022-10-18T16:29:41.196Z,14.77
2022-10-18T16:32:07.984Z,13.73
2022-10-18T16:34:34.888Z,13.60
2022-10-18T16:37:01.684Z,13.90
2022-10-18T16:39:29.949Z,14.17
2022-10-18T16:41:56.716Z,13.77
2022-10-18T16:44:23.457Z,14.40
2022-10-18T16:46:53.843Z,14.23
2022-10-18T16:49:25.085Z,16.47
2022-10-18T16:51:55.426Z,15.67
2022-10-18T16:54:22.900Z,19.43
2022-10-18T16:56:50.135Z,23.83
2022-10-18T16:59:29.938Z,20.77
2022-10-18T17:01:56.926Z,15.97
2022-10-18T17:04:23.839Z,15.83
2022-10-18T17:06:52.557Z,16.37
2022-10-18T17:09:19.274Z,17.87
2022-10-18T17:11:45.993Z,15.40
2022-10-18T17:14:12.722Z,16.20
2022-10-18T17:16:39.490Z,15.40
2022-10-18T17:19:10.323Z,17.20
2022-10-18T17:21:37.515Z,16.77
2022-10-18T17:24:06.099Z,17.87
2022-10-18T17:26:34.122Z,18.30
2022-10-18T17:29:06.974Z,20.33
2022-10-18T17:31:35.561Z,21.33
2022-10-18T17:34:02.683Z,19.43
2022-10-18T17:36:30.867Z,20.70
2022-10-18T17:38:57.954Z,19.97
2022-10-18T17:41:24.798Z,20.00
2022-10-18T17:43:51.853Z,16.13
2022-10-18T17:46:19.425Z,15.23
2022-10-18T17:48:46.560Z,16.47
2022-10-18T17:51:16.298Z,17.03
2022-10-18T17:53:43.210Z,17.63
2022-10-18T17:56:10.872Z,17.43
2022-10-18T17:58:37.800Z,17.37
2022-10-18T18:01:19.342Z,16.33
2022-10-18T18:03:49.414Z,15.00
2022-10-18T18:06:20.775Z,14.87
2022-10-18T18:08:48.417Z,15.13
2022-10-18T18:11:16.861Z,16.13
2022-10-18T18:13:43.651Z,16.00
2022-10-18T18:16:23.424Z,19.37
2022-10-18T18:18:53.507Z,19.17
2022-10-18T18:21:20.571Z,25.07
2022-10-18T18:23:48.416Z,25.63
2022-10-18T18:26:17.489Z,25.97
2022-10-18T18:28:45.004Z,18.53
2022-10-18T18:31:16.400Z,20.43
2022-10-18T18:33:43.823Z,23.60
2022-10-18T18:36:11.250Z,19.70
2022-10-18T18:38:39.770Z,18.43
2022-10-18T18:41:16.657Z,16.83
2022-10-18T18:43:45.797Z,16.57
2022-10-18T18:46:13.311Z,17.03
2022-10-18T18:48:40.918Z,18.40
2022-10-18T18:51:12.425Z,18.70
2022-10-18T18:53:44.561Z,18.50
2022-10-18T18:56:14.555Z,18.97
2022-10-18T18:58:43.962Z,19.17
2022-10-18T19:01:20.104Z,18.67
2022-10-18T19:03:50.194Z,20.10
2022-10-18T19:06:29.036Z,19.50
2022-10-18T19:09:04.478Z,21.77
2022-10-18T19:11:37.764Z,21.17
2022-10-18T19:14:06.483Z,20.93
2022-10-18T19:16:33.230Z,23.97
2022-10-18T19:19:11.503Z,24.13
2022-10-18T19:21:51.346Z,20.50
2022-10-18T19:24:19.515Z,21.30
2022-10-18T19:26:55.285Z,21.47
2022-10-18T19:29:25.028Z,21.90
2022-10-18T19:31:54.477Z,21.10
2022-10-18T19:34:23.507Z,21.50
2022-10-18T19:36:51.683Z,21.63
2022-10-18T19:39:26.743Z,34.43
2022-10-18T19:41:57.730Z,28.80
2022-10-18T19:44:27.448Z,23.63
2022-10-18T19:46:54.873Z,23.57
2022-10-18T19:49:21.736Z,22.27
2022-10-18T19:51:48.648Z,20.37
2022-10-18T19:54:16.295Z,21.03
2022-10-18T19:56:43.346Z,21.00
2022-10-18T19:59:11.327Z,21.70
2022-10-18T20:01:38.269Z,20.70
2022-10-18T20:04:05.468Z,19.00
2022-10-18T20:06:32.335Z,18.67
2022-10-18T20:08:59.573Z,20.67
2022-10-18T20:11:28.584Z,21.60
2022-10-18T20:13:55.784Z,22.17
2022-10-18T20:16:28.383Z,25.77
2022-10-18T20:19:07.479Z,25.77
2022-10-18T20:21:35.994Z,27.33
2022-10-18T20:24:04.702Z,26.00
2022-10-18T20:26:31.885Z,28.40
2022-10-18T20:28:59.876Z,25.93
2022-10-18T20:31:32.367Z,26.73
2022-10-18T20:34:01.867Z,25.40
2022-10-18T20:36:30.375Z,22.93
2022-10-18T20:38:58.014Z,23.73
2022-10-18T20:41:34.197Z,23.50
2022-10-18T20:44:07.103Z,21.73
2022-10-18T20:46:36.576Z,21.47
2022-10-18T20:49:04.795Z,19.60
2022-10-18T20:51:33.672Z,19.33
2022-10-18T20:54:01.842Z,21.20
2022-10-18T20:56:28.718Z,19.03
2022-10-18T20:58:56.785Z,18.57
2022-10-18T21:01:26.444Z,16.10
2022-10-18T21:03:54.687Z,18.37
2022-10-18T21:06:24.423Z,22.47
2022-10-18T21:08:56.437Z,20.43
2022-10-18T21:11:23.957Z,17.43
2022-10-18T21:14:02.743Z,17.67
2022-10-18T21:16:31.096Z,16.33
2022-10-18T21:19:02.944Z,16.73
2022-10-18T21:21:29.778Z,15.43
2022-10-18T21:23:56.529Z,15.50
2022-10-18T21:26:25.991Z,15.20
2022-10-18T21:28:54.774Z,15.10
2022-10-18T21:31:23.358Z,14.77
2022-10-18T21:33:55.328Z,15.60
2022-10-18T21:36:22.393Z,17.00
2022-10-18T21:38:49.682Z,17.13
2022-10-18T21:41:18.007Z,15.27
2022-10-18T21:43:48.073Z,14.60
2022-10-18T21:46:16.964Z,14.53
2022-10-18T21:48:51.990Z,13.50
2022-10-18T21:51:20.747Z,13.83
2022-10-18T21:53:49.684Z,11.87
2022-10-18T21:56:30.912Z,12.50
2022-10-18T21:58:58.289Z,11.53
2022-10-18T22:01:33.502Z,10.87
2022-10-18T22:04:02.404Z,11.20
2022-10-18T22:06:32.292Z,12.13
2022-10-18T22:09:01.292Z,11.73
2022-10-18T22:11:31.823Z,12.10
2022-10-18T22:13:59.212Z,12.33
2022-10-18T22:16:26.567Z,11.80
2022-10-18T22:18:57.870Z,10.77
2022-10-18T22:21:24.923Z,10.60
2022-10-18T22:23:53.948Z,10.80
2022-10-18T22:26:25.590Z,12.27
2022-10-18T22:29:01.634Z,11.80
2022-10-18T22:31:32.193Z,11.20
2022-10-18T22:34:03.125Z,11.00
2022-10-18T22:36:30.753Z,11.53
2022-10-18T22:38:57.740Z,12.30
2022-10-18T22:41:24.826Z,12.50
2022-10-18T22:43:52.226Z,11.63
2022-10-18T22:46:19.982Z,10.80
2022-10-18T22:48:47.125Z,9.87
2022-10-18T22:51:14.483Z,10.00
2022-10-18T22:53:41.553Z,9.70
2022-10-18T22:56:13.299Z,9.53
2022-10-18T22:58:40.086Z,9.97
2022-10-18T23:01:09.905Z,9.50
2022-10-18T23:03:37.364Z,9.70
2022-10-18T23:06:05.568Z,9.43
2022-10-18T23:08:32.474Z,9.20
2022-10-18T23:11:00.251Z,9.70
2022-10-18T23:13:28.109Z,9.67
2022-10-18T23:16:04.491Z,8.67
2022-10-18T23:18:32.569Z,8.67
2022-10-18T23:21:11.097Z,8.07
2022-10-18T23:23:40.114Z,8.50
2022-10-18T23:26:10.819Z,9.00
2022-10-18T23:28:39.840Z,8.70
2022-10-18T23:31:11.999Z,7.83
2022-10-18T23:33:39.582Z,8.30
2022-10-18T23:36:07.910Z,7.90
2022-10-18T23:38:35.860Z,8.00
2022-10-18T23:41:03.475Z,7.90
2022-10-18T23:43:30.370Z,8.40
2022-10-18T23:45:57.266Z,7.80
2022-10-18T23:48:24.408Z,7.87
2022-10-18T23:50:51.594Z,7.27
2022-10-18T23:53:19.639Z,7.33
2022-10-18T23:56:10.638Z,7.70
2022-10-18T23:58:38.443Z,7.60
